• Join FlightAware (Why Join?)
  • Login
  • US Flag 
04:54PM EST


 

Airport Tracker/Info


-or-


 

Live Flight TrackerFlight Track Log ✈ SKW5426 ✈ 23-Apr-2012 ✈ KDEN - KOKC

Flight Track Log - Related Links

Times and Time Zones

All times are in EDT time to prevent confusion due to time zone crossing. See the SKW5426 flight status page for this flight to view local times or setup timezone preferences in your user account.

Time Position Orientation Groundspeed Altitude Reporting Facility
EDT Latitude Longitude Course Direction KTS MPH feet Rate Location/Type
10:09AM 39.8343 -104.6614 145° Southeast  Level FlightAware Approximate
10:10AM 39.7774 -104.5501 223° Southwest  Level FlightAware Approximate
10:11AM 39.7500 -104.5833 142° Southeast 240 276 8,600  Level Denver TRACON
10:12AM 39.6833 -104.5167 117° Southeast 298 343 10,200 1,560 Climbing Denver TRACON
10:13AM 39.6500 -104.4333 90° East 313 360 11,800 1,320 Climbing Denver TRACON
10:14AM 39.6500 -104.3000 97° East 357 411 12,900 1,140 Climbing Denver TRACON
10:15AM 39.6453 -104.2511 99° East 382 440 13,600 1,860 Climbing Denver Center
10:16AM 39.6278 -104.1061 99° East 390 449 15,800 1,920 Climbing Denver Center
10:17AM 39.6125 -103.9744 97° East 375 432 17,500 1,500 Climbing Denver Center
10:18AM 39.5992 -103.8403 106° East 369 425 18,900 1,440 Climbing Denver Center
10:19AM 39.5708 -103.7094 108° East 369 425 20,400 1,380 Climbing Denver Center
10:20AM 39.5364 -103.5761 109° East 376 433 21,700 1,320 Climbing Denver Center
10:21AM 39.4994 -103.4378 108° East 381 438 23,100 1,200 Climbing Denver Center
10:22AM 39.4644 -103.3019 109° East 391 450 24,100 960 Climbing Denver Center
10:23AM 39.4272 -103.1614 109° East 406 467 25,100 960 Climbing Denver Center
10:24AM 39.3894 -103.0181 110° East 413 475 26,100 840 Climbing Denver Center
10:25AM 39.3522 -102.8883 108° East 420 483 26,800 780 Climbing Denver Center
10:26AM 39.3117 -102.7267 112° Southeast 425 489 27,700 840 Climbing Denver Center
10:27AM 39.2672 -102.5842 109° East 425 489 28,500 780 Climbing Denver Center
10:28AM 39.2314 -102.4494 108° East 431 496 29,300 660 Climbing Denver Center
10:29AM 39.1878 -102.2803 111° Southeast 440 506 29,900 540 Climbing Denver Center
10:30AM 39.1447 -102.1331 114° Southeast 440 506 30,400 540 Climbing Denver Center
10:31AM 39.0931 -101.9864 142° Southeast 440 506 31,000 720 Climbing Denver Center
10:32AM 39.0019 -101.8933 139° Southeast 447 514 31,900 720 Climbing Denver Center
10:33AM 38.8969 -101.7775 140° Southeast 452 520 32,500 540 Climbing Denver Center
10:34AM 38.8011 -101.6747 140° Southeast 452 520 33,000 240 Climbing Denver Center
10:35AM 38.7114 -101.5769 139° Southeast 459 528 33,000  Level Denver Center
10:39AM 38.2594 -101.0861 139° Southeast 485 558 33,000  Level Kansas City Center
10:40AM 38.1592 -100.9767 145° Southeast 479 551 33,000  Level Kansas City Center
10:41AM 38.0497 -100.8803 147° Southeast 479 551 33,000  Level Kansas City Center
10:42AM 37.9517 -100.7981 146° Southeast 474 545 33,000  Level Kansas City Center
10:43AM 37.8439 -100.7047 147° Southeast 474 545 33,000  Level Kansas City Center
10:44AM 37.7219 -100.6056 146° Southeast 479 551 33,000  Level Kansas City Center
10:45AM 37.6139 -100.5128 148° Southeast 479 551 33,000  Level Kansas City Center
10:46AM 37.5036 -100.4256 147° Southeast 479 551 33,000  Level Kansas City Center
10:47AM 37.4072 -100.3472 147° Southeast 471 542 33,000  Level Kansas City Center
10:48AM 37.2947 -100.2553 147° Southeast 471 542 33,000  Level Kansas City Center
10:49AM 37.1764 -100.1575 147° Southeast 471 542 33,000  Level Kansas City Center
10:50AM 37.0681 -100.0689 148° Southeast 471 542 33,000  Level Kansas City Center
10:51AM 36.9592 -99.9831 147° Southeast 466 536 33,000  Level Kansas City Center
10:52AM 36.8486 -99.8947 146° Southeast 466 536 33,000  Level Kansas City Center
10:53AM 36.7400 -99.8042 148° Southeast 471 542 33,000  Level Kansas City Center
10:54AM 36.6311 -99.7189 146° Southeast 471 542 33,000 -360 Level Kansas City Center
10:55AM 36.5222 -99.6289 147° Southeast 466 536 32,300 -900 Descending Kansas City Center
10:56AM 36.4072 -99.5361 148° Southeast 471 542 31,300 -1,020 Descending Kansas City Center
10:57AM 36.2919 -99.4461 147° Southeast 484 557 30,300 -1,020 Descending Kansas City Center
10:58AM 36.1789 -99.3567 127° Southeast 484 557 29,300 -1,440 Descending Kansas City Center
11:00AM 35.9978 -99.0603 120° Southeast 469 540 25,600 -1,800 Descending Fort Worth Center
11:01AM 35.9369 -98.9283 118° Southeast 480 552 23,600 -2,280 Descending Fort Worth Center
11:02AM 35.8742 -98.7839 118° Southeast 480 552 21,100 -2,520 Descending Fort Worth Center
11:03AM 35.8172 -98.6497 118° Southeast 464 534 18,600 -2,400 Descending Fort Worth Center
11:04AM 35.7600 -98.5186 120° Southeast 446 513 16,300 -2,400 Descending Fort Worth Center
11:05AM 35.7089 -98.4078 119° Southeast 425 489 14,400 -1,740 Descending Fort Worth Center
11:06AM 35.6533 -98.2822 118° Southeast 414 476 13,200 -1,140 Descending Fort Worth Center
11:07AM 35.6042 -98.1692 113° Southeast 368 423 12,100 -1,380 Descending Fort Worth Center
11:08AM 35.5692 -98.0669 112° Southeast 324 373 10,500 -1,740 Descending Fort Worth Center
11:09AM 35.5364 -97.9697 107° East 309 356 8,700 180 Descending Fort Worth Center
11:10AM 35.5075 -97.8547 105° East 301 346 11,000 -1,920 Climbing Fort Worth Center
11:11AM 35.4911 -97.7781 105° East 278 320 4,800 -7,320 Descending Fort Worth Center